Great Pond, Maine
Current Conditions -  °F | °C
As of 9:53 AM on Tuesday 21 Oct 2014 (Local Time) from KBGR Reporting Station
Broken Clouds Broken Clouds  
Wind Chill: 47°   Ceiling: 12000
Heat Index: 49°   Visibility: 10mi
Dew Point: 33°   Wind: 6mph
Humidity: 54%   Direction: 110°ESE
Pressure: 30.08"   Gusts: NA
Location:  44.9585°N, 68.271°W
Report Text: KBGR 211353Z 11005KT 10SM BKN120 BKN200 09/01 A3008 RMK AO2 SLP188 T00940006
Loading
Personal Weather Stations






























Interactive Weather Map
Tropical Storm Tracking
New forecast layout! Learn more

10-Day Weather Forecast

Advertisements
Track Severe Weather on mobile